createdAt,value
2017-11-16T00:01:03.296Z,8.31
2017-11-16T00:06:03.092Z,8.23
2017-11-16T00:11:03.410Z,8.31
2017-11-16T00:16:03.061Z,8.27
2017-11-16T00:21:04.309Z,8.28
2017-11-16T00:26:03.896Z,8.21
2017-11-16T00:31:03.711Z,8.18
2017-11-16T00:36:03.449Z,8.20
2017-11-16T00:41:03.646Z,8.18
2017-11-16T00:46:03.497Z,8.20
2017-11-16T00:51:03.270Z,8.18
2017-11-16T00:56:03.521Z,8.17
2017-11-16T01:01:03.267Z,8.05
2017-11-16T01:06:03.069Z,8.08
2017-11-16T01:11:03.210Z,8.07
2017-11-16T01:16:03.957Z,8.07
2017-11-16T01:21:03.847Z,7.90
2017-11-16T01:26:03.596Z,7.90
2017-11-16T01:31:03.340Z,7.88
2017-11-16T01:36:03.168Z,7.90
2017-11-16T01:41:03.334Z,7.87
2017-11-16T01:46:03.105Z,7.87
2017-11-16T01:51:03.876Z,7.84
2017-11-16T01:56:03.681Z,7.85
2017-11-16T02:01:03.438Z,7.75
2017-11-16T02:06:03.216Z,7.72
2017-11-16T02:11:03.374Z,7.57
2017-11-16T02:16:03.121Z,7.60
2017-11-16T02:21:03.025Z,7.48
2017-11-16T02:26:03.836Z,7.56
2017-11-16T02:31:03.594Z,7.48
2017-11-16T02:36:03.386Z,7.55
2017-11-16T02:41:03.587Z,7.67
2017-11-16T02:46:03.394Z,7.45
2017-11-16T02:51:03.138Z,7.60
2017-11-16T02:56:03.903Z,7.68
2017-11-16T03:01:03.654Z,7.67
2017-11-16T03:06:03.430Z,7.67
2017-11-16T03:11:03.606Z,7.70
2017-11-16T03:16:03.408Z,7.68
2017-11-16T03:21:03.341Z,7.74
2017-11-16T03:26:03.063Z,7.74
2017-11-16T03:31:03.874Z,7.74
2017-11-16T03:36:03.658Z,7.77
2017-11-16T03:41:03.842Z,7.74
2017-11-16T03:46:03.672Z,7.74
2017-11-16T03:51:03.454Z,7.64
2017-11-16T03:56:03.194Z,7.81
2017-11-16T04:01:03.941Z,7.71
2017-11-16T04:06:03.779Z,7.72
2017-11-16T04:11:03.959Z,7.62
2017-11-16T04:16:03.750Z,7.74
2017-11-16T04:21:03.579Z,7.62
2017-11-16T04:26:03.759Z,7.62
2017-11-16T04:31:03.571Z,7.61
2017-11-16T04:36:03.334Z,7.66
2017-11-16T04:41:03.528Z,7.55
2017-11-16T04:46:03.246Z,7.65
2017-11-16T04:51:03.001Z,7.55
2017-11-16T04:56:03.836Z,7.48
2017-11-16T05:01:03.555Z,7.48
2017-11-16T05:06:03.326Z,7.38
2017-11-16T05:11:03.490Z,7.48
2017-11-16T05:16:03.302Z,7.45
2017-11-16T05:21:03.097Z,7.35
2017-11-16T05:26:03.676Z,7.39
2017-11-16T05:31:03.504Z,7.38
2017-11-16T05:36:03.282Z,7.32
2017-11-16T05:41:03.425Z,7.38
2017-11-16T05:46:03.277Z,7.21
2017-11-16T05:51:03.061Z,7.22
2017-11-16T05:56:03.875Z,7.29
2017-11-16T06:01:03.544Z,7.29
2017-11-16T06:06:03.354Z,7.29
2017-11-16T06:11:03.494Z,7.36
2017-11-16T06:16:03.235Z,7.36
2017-11-16T06:21:03.051Z,7.35
2017-11-16T06:26:03.836Z,7.35
2017-11-16T06:31:03.656Z,7.29
2017-11-16T06:36:03.442Z,7.35
2017-11-16T06:41:03.592Z,7.25
2017-11-16T06:46:03.340Z,7.25
2017-11-16T06:51:03.059Z,7.25
2017-11-16T06:56:03.811Z,7.16
2017-11-16T07:01:03.574Z,7.05
2017-11-16T07:06:03.358Z,6.94
2017-11-16T07:11:03.545Z,7.01
2017-11-16T07:16:03.321Z,7.09
2017-11-16T07:21:03.142Z,7.26
2017-11-16T07:26:03.965Z,7.15
2017-11-16T07:31:03.663Z,7.08
2017-11-16T07:36:03.538Z,7.04
2017-11-16T07:41:03.642Z,7.18
2017-11-16T07:46:03.463Z,7.23
2017-11-16T07:51:03.162Z,7.02
2017-11-16T07:56:03.972Z,6.95
2017-11-16T08:01:03.664Z,7.01
2017-11-16T08:06:03.656Z,7.08
2017-11-16T08:11:03.884Z,7.05
2017-11-16T08:16:03.633Z,7.20
2017-11-16T08:21:03.518Z,7.19
2017-11-16T08:26:03.312Z,7.20
2017-11-16T08:31:03.033Z,7.20
2017-11-16T08:36:03.838Z,7.13
2017-11-16T08:41:03.964Z,7.29
2017-11-16T08:46:03.759Z,7.19
2017-11-16T08:51:03.539Z,7.19
2017-11-16T08:56:03.310Z,7.30
2017-11-16T09:01:03.465Z,7.20
2017-11-16T09:06:03.296Z,7.12
2017-11-16T09:11:03.804Z,7.39
2017-11-16T09:16:03.646Z,7.39
2017-11-16T09:21:03.492Z,7.37
2017-11-16T09:26:03.319Z,7.49
2017-11-16T09:31:03.066Z,7.49
2017-11-16T09:36:03.840Z,7.57
2017-11-16T09:41:03.096Z,7.46
2017-11-16T09:46:03.836Z,7.54
2017-11-16T09:51:03.590Z,7.67
2017-11-16T09:56:03.340Z,7.77
2017-11-16T10:01:03.140Z,7.87
2017-11-16T10:06:03.929Z,7.96
2017-11-16T10:11:03.098Z,7.94
2017-11-16T10:16:03.955Z,8.03
2017-11-16T10:21:03.822Z,8.01
2017-11-16T10:26:03.629Z,7.95
2017-11-16T10:31:03.423Z,8.08
2017-11-16T10:36:03.236Z,8.18
2017-11-16T10:41:03.446Z,8.15
2017-11-16T10:46:03.290Z,8.27
2017-11-16T10:51:03.087Z,8.35
2017-11-16T10:56:03.890Z,8.35
2017-11-16T11:01:03.723Z,8.45
2017-11-16T11:06:03.517Z,8.44
2017-11-16T11:11:03.746Z,8.53
2017-11-16T11:16:03.529Z,8.52
2017-11-16T11:21:03.378Z,8.60
2017-11-16T11:26:03.100Z,8.59
2017-11-16T11:31:03.962Z,8.57
2017-11-16T11:36:03.762Z,8.57
2017-11-16T11:41:03.975Z,8.56
2017-11-16T11:46:03.763Z,8.64
2017-11-16T11:51:03.587Z,8.57
2017-11-16T11:56:03.299Z,8.64
2017-11-16T12:01:03.073Z,8.53
2017-11-16T12:06:03.798Z,8.53
2017-11-16T12:11:03.960Z,8.60
2017-11-16T12:16:02.966Z,8.60
2017-11-16T12:21:04.487Z,8.71
2017-11-16T12:26:03.012Z,8.78
2017-11-16T12:31:03.903Z,8.78
2017-11-16T12:36:03.629Z,8.83
2017-11-16T12:41:03.798Z,8.89
2017-11-16T12:46:03.559Z,8.96
2017-11-16T12:51:03.336Z,9.05
2017-11-16T12:56:03.122Z,8.96
2017-11-16T13:01:03.086Z,9.05
2017-11-16T13:06:03.892Z,8.93
2017-11-16T13:11:03.098Z,9.03
2017-11-16T13:16:03.820Z,9.05
2017-11-16T13:21:03.635Z,9.05
2017-11-16T13:26:03.450Z,9.02
2017-11-16T13:31:03.281Z,8.92
2017-11-16T13:36:03.014Z,8.92
2017-11-16T13:41:03.232Z,8.92
2017-11-16T13:46:03.078Z,8.86
2017-11-16T13:51:03.924Z,8.85
2017-11-16T13:56:03.637Z,8.85
2017-11-16T14:01:03.457Z,8.86
2017-11-16T14:06:03.190Z,8.83
2017-11-16T14:11:08.719Z,8.86
2017-11-16T14:16:03.952Z,8.88
2017-11-16T14:21:03.503Z,8.89
2017-11-16T14:26:03.891Z,8.89
2017-11-16T14:31:03.532Z,8.93
2017-11-16T14:36:03.398Z,8.78
2017-11-16T14:41:03.600Z,8.78
2017-11-16T14:46:03.362Z,8.78
2017-11-16T14:51:03.150Z,8.81
2017-11-16T14:56:03.885Z,8.66
2017-11-16T15:01:03.648Z,8.68
2017-11-16T15:06:03.400Z,8.84
2017-11-16T15:11:03.578Z,8.57
2017-11-16T15:16:03.319Z,8.71
2017-11-16T15:21:03.283Z,8.71
2017-11-16T15:26:03.943Z,8.60
2017-11-16T15:31:03.695Z,8.61
2017-11-16T15:36:04.012Z,8.60
2017-11-16T15:41:03.650Z,8.51
2017-11-16T15:46:03.610Z,8.51
2017-11-16T15:51:03.305Z,8.51
2017-11-16T15:56:03.654Z,8.50
2017-11-16T16:01:03.360Z,8.41
2017-11-16T16:06:03.122Z,8.40
2017-11-16T16:11:03.382Z,8.43
2017-11-16T16:16:03.071Z,8.46
2017-11-16T16:21:03.870Z,8.46
2017-11-16T16:26:03.681Z,8.47
2017-11-16T16:31:03.533Z,8.46
2017-11-16T16:36:03.513Z,8.49
2017-11-16T16:41:03.150Z,8.49
2017-11-16T16:46:03.906Z,8.50
2017-11-16T16:51:04.146Z,8.52
2017-11-16T16:56:03.161Z,8.52
2017-11-16T17:01:03.978Z,8.53
2017-11-16T17:06:03.829Z,8.57
2017-11-16T17:11:03.091Z,8.61
2017-11-16T17:16:03.880Z,8.60
2017-11-16T17:21:03.739Z,8.61
2017-11-16T17:26:03.587Z,8.63
2017-11-16T17:31:03.426Z,8.64
2017-11-16T17:36:03.224Z,8.64
2017-11-16T17:41:03.779Z,8.64
2017-11-16T17:46:03.584Z,8.66
2017-11-16T17:51:03.434Z,8.66
2017-11-16T17:56:03.459Z,8.59
2017-11-16T18:01:03.269Z,8.57
2017-11-16T18:06:03.196Z,8.66
2017-11-16T18:11:03.459Z,8.67
2017-11-16T18:16:03.245Z,8.56
2017-11-16T18:21:03.221Z,8.57
2017-11-16T18:26:03.274Z,8.66
2017-11-16T18:31:03.122Z,8.66
2017-11-16T18:36:03.933Z,8.67
2017-11-16T18:41:03.294Z,8.60
2017-11-16T18:46:03.183Z,8.59
2017-11-16T18:51:03.991Z,8.60
2017-11-16T18:56:04.281Z,8.53
2017-11-16T19:01:03.097Z,8.63
2017-11-16T19:06:04.346Z,8.62
2017-11-16T19:11:03.624Z,8.60
2017-11-16T19:16:04.168Z,8.53
2017-11-16T19:21:04.063Z,8.52
2017-11-16T19:26:04.220Z,8.52
2017-11-16T19:31:04.845Z,8.52
2017-11-16T19:36:04.490Z,8.55
2017-11-16T19:41:04.803Z,8.55
2017-11-16T19:46:03.579Z,8.56
2017-11-16T19:51:04.244Z,8.58
2017-11-16T19:56:04.643Z,8.51
2017-11-16T20:01:04.448Z,8.55
2017-11-16T20:06:04.251Z,8.64
2017-11-16T20:11:04.535Z,8.58
2017-11-16T20:16:04.604Z,8.54
2017-11-16T20:21:04.058Z,8.55
2017-11-16T20:26:04.937Z,8.67
2017-11-16T20:31:04.110Z,8.65
2017-11-16T20:36:05.077Z,8.65
2017-11-16T20:41:04.373Z,8.65
2017-11-16T20:46:09.586Z,8.65
2017-11-16T20:51:04.699Z,8.61
2017-11-16T20:56:04.169Z,8.61
2017-11-16T21:01:03.967Z,8.63
2017-11-16T21:06:04.944Z,8.59
2017-11-16T21:11:04.307Z,8.73
2017-11-16T21:16:03.159Z,8.73
2017-11-16T21:21:03.224Z,8.66
2017-11-16T21:26:03.049Z,8.66
2017-11-16T21:31:03.918Z,8.66
2017-11-16T21:36:03.838Z,8.66
2017-11-16T21:41:03.050Z,8.69
2017-11-16T21:46:03.901Z,8.69
2017-11-16T21:51:03.774Z,8.69
2017-11-16T21:56:03.652Z,8.69
2017-11-16T22:01:03.487Z,8.69
2017-11-16T22:06:03.288Z,8.69
2017-11-16T22:11:03.476Z,8.69
2017-11-16T22:16:03.705Z,8.79
2017-11-16T22:21:03.530Z,8.59
2017-11-16T22:26:03.378Z,8.67
2017-11-16T22:31:03.167Z,8.67
2017-11-16T22:36:04.016Z,8.69
2017-11-16T22:41:03.474Z,8.69
2017-11-16T22:46:03.344Z,8.79
2017-11-16T22:51:03.663Z,8.79
2017-11-16T22:56:03.132Z,8.79
2017-11-16T23:01:04.044Z,8.69
2017-11-16T23:06:03.852Z,8.69
2017-11-16T23:11:03.063Z,8.69
2017-11-16T23:16:05.096Z,8.79
2017-11-16T23:21:04.134Z,8.89
2017-11-16T23:26:03.692Z,8.79
2017-11-16T23:31:03.745Z,8.69
2017-11-16T23:36:04.173Z,8.79
2017-11-16T23:41:04.006Z,8.79
2017-11-16T23:46:03.963Z,8.89
2017-11-16T23:51:10.306Z,8.79
2017-11-16T23:56:03.990Z,8.89
